Preview of NWS' New Version of Forecast
This preview is not operational and should not be used for support decisions.

Terminal Aerodrome Forecast (TAF)

Issued by National Weather Service (NWS)

                            
000
FTUS46 KSEW 170520
TAFBLI
TAF
KBLI 170520Z 1706/1806 17005KT P6SM SCT035 BKN050
     FM171200 17007KT P6SM BKN030 OVC060
     FM172000 16008KT P6SM SCT030 BKN060
     FM180000 17005KT P6SM OVC050=